sensor_id;sensor_type;location;lat;lon;timestamp;temperature;humidity
19947;DHT22;10135;50.702;7.276;2022-10-16T05:30:12;18.20;65.80
19947;DHT22;10135;50.702;7.276;2022-10-16T05:32:17;18.10;65.80
19947;DHT22;10135;50.702;7.276;2022-10-16T05:34:19;18.10;65.80
19947;DHT22;10135;50.702;7.276;2022-10-16T05:36:20;18.20;65.80
19947;DHT22;10135;50.702;7.276;2022-10-16T05:38:21;18.20;65.80
19947;DHT22;10135;50.702;7.276;2022-10-16T05:40:21;18.10;65.80
19947;DHT22;10135;50.702;7.276;2022-10-16T05:42:22;18.10;65.90
19947;DHT22;10135;50.702;7.276;2022-10-16T05:44:23;18.20;65.90
19947;DHT22;10135;50.702;7.276;2022-10-16T05:46:24;18.20;65.90
19947;DHT22;10135;50.702;7.276;2022-10-16T05:48:24;18.20;65.90
19947;DHT22;10135;50.702;7.276;2022-10-16T05:50:26;18.20;66.00
19947;DHT22;10135;50.702;7.276;2022-10-16T05:52:27;18.20;65.90
19947;DHT22;10135;50.702;7.276;2022-10-16T05:54:28;18.20;66.00
19947;DHT22;10135;50.702;7.276;2022-10-16T05:56:28;18.20;65.90
19947;DHT22;10135;50.702;7.276;2022-10-16T05:58:31;18.10;65.90
19947;DHT22;10135;50.702;7.276;2022-10-16T06:00:35;18.20;66.00
19947;DHT22;10135;50.702;7.276;2022-10-16T06:02:36;18.20;66.10
19947;DHT22;10135;50.702;7.276;2022-10-16T06:04:37;18.20;66.10
19947;DHT22;10135;50.702;7.276;2022-10-16T06:06:37;18.20;66.10
19947;DHT22;10135;50.702;7.276;2022-10-16T06:08:39;18.20;66.10
19947;DHT22;10135;50.702;7.276;2022-10-16T06:10:40;18.20;66.10
19947;DHT22;10135;50.702;7.276;2022-10-16T06:12:41;18.20;66.10
19947;DHT22;10135;50.702;7.276;2022-10-16T06:14:41;18.20;66.10
19947;DHT22;10135;50.702;7.276;2022-10-16T06:16:42;18.20;66.20
19947;DHT22;10135;50.702;7.276;2022-10-16T06:18:43;18.30;66.30
19947;DHT22;10135;50.702;7.276;2022-10-16T06:20:43;18.30;66.20
19947;DHT22;10135;50.702;7.276;2022-10-16T06:22:44;18.30;66.30
19947;DHT22;10135;50.702;7.276;2022-10-16T06:24:45;18.30;66.30
19947;DHT22;10135;50.702;7.276;2022-10-16T06:26:46;18.30;66.30
19947;DHT22;10135;50.702;7.276;2022-10-16T06:28:47;18.40;66.30
19947;DHT22;10135;50.702;7.276;2022-10-16T06:30:48;18.30;66.10
19947;DHT22;10135;50.702;7.276;2022-10-16T06:32:49;18.30;66.20
19947;DHT22;10135;50.702;7.276;2022-10-16T06:34:49;18.30;66.20
19947;DHT22;10135;50.702;7.276;2022-10-16T06:36:50;18.40;66.20
19947;DHT22;10135;50.702;7.276;2022-10-16T06:38:51;18.40;66.20
19947;DHT22;10135;50.702;7.276;2022-10-16T06:40:53;18.40;66.20
19947;DHT22;10135;50.702;7.276;2022-10-16T06:42:57;18.30;66.10
19947;DHT22;10135;50.702;7.276;2022-10-16T06:44:57;18.40;66.30
19947;DHT22;10135;50.702;7.276;2022-10-16T06:46:58;18.40;66.20
19947;DHT22;10135;50.702;7.276;2022-10-16T06:48:59;18.40;66.30
19947;DHT22;10135;50.702;7.276;2022-10-16T06:51:03;18.40;66.10
19947;DHT22;10135;50.702;7.276;2022-10-16T06:53:05;18.40;66.20
19947;DHT22;10135;50.702;7.276;2022-10-16T06:55:06;18.40;66.20
19947;DHT22;10135;50.702;7.276;2022-10-16T06:57:07;18.40;66.20
19947;DHT22;10135;50.702;7.276;2022-10-16T06:59:07;18.40;66.20
19947;DHT22;10135;50.702;7.276;2022-10-16T07:01:09;18.40;66.10
19947;DHT22;10135;50.702;7.276;2022-10-16T07:03:11;18.40;66.20
19947;DHT22;10135;50.702;7.276;2022-10-16T07:05:11;18.40;66.20
19947;DHT22;10135;50.702;7.276;2022-10-16T07:07:12;18.40;66.10
19947;DHT22;10135;50.702;7.276;2022-10-16T07:09:13;18.50;66.20
19947;DHT22;10135;50.702;7.276;2022-10-16T07:11:16;18.40;66.20
19947;DHT22;10135;50.702;7.276;2022-10-16T07:13:19;18.50;66.20
19947;DHT22;10135;50.702;7.276;2022-10-16T07:15:19;18.50;66.20
19947;DHT22;10135;50.702;7.276;2022-10-16T07:17:20;18.50;66.10
19947;DHT22;10135;50.702;7.276;2022-10-16T07:19:21;18.50;66.20
19947;DHT22;10135;50.702;7.276;2022-10-16T07:21:22;18.50;66.20
19947;DHT22;10135;50.702;7.276;2022-10-16T07:23:23;18.50;66.20
19947;DHT22;10135;50.702;7.276;2022-10-16T07:25:23;18.50;66.20
19947;DHT22;10135;50.702;7.276;2022-10-16T07:27:24;18.60;66.20
19947;DHT22;10135;50.702;7.276;2022-10-16T07:29:25;18.50;66.20
19947;DHT22;10135;50.702;7.276;2022-10-16T07:31:26;18.50;66.20
19947;DHT22;10135;50.702;7.276;2022-10-16T07:33:28;18.60;66.20
19947;DHT22;10135;50.702;7.276;2022-10-16T07:35:29;18.60;66.10
19947;DHT22;10135;50.702;7.276;2022-10-16T07:37:30;18.60;66.00
19947;DHT22;10135;50.702;7.276;2022-10-16T07:39:30;18.60;66.00
19947;DHT22;10135;50.702;7.276;2022-10-16T07:41:31;18.60;66.00
19947;DHT22;10135;50.702;7.276;2022-10-16T07:43:36;18.60;66.00
19947;DHT22;10135;50.702;7.276;2022-10-16T07:45:37;18.70;66.00
19947;DHT22;10135;50.702;7.276;2022-10-16T07:47:46;18.70;66.00
19947;DHT22;10135;50.702;7.276;2022-10-16T07:49:46;18.70;66.00
19947;DHT22;10135;50.702;7.276;2022-10-16T07:51:47;18.70;65.90
19947;DHT22;10135;50.702;7.276;2022-10-16T07:53:48;18.70;66.00
19947;DHT22;10135;50.702;7.276;2022-10-16T07:55:50;18.70;65.90
19947;DHT22;10135;50.702;7.276;2022-10-16T07:57:50;18.80;65.90
19947;DHT22;10135;50.702;7.276;2022-10-16T07:59:51;18.80;65.90
19947;DHT22;10135;50.702;7.276;2022-10-16T08:01:51;18.80;66.00
19947;DHT22;10135;50.702;7.276;2022-10-16T08:03:52;18.80;65.80
19947;DHT22;10135;50.702;7.276;2022-10-16T08:05:53;18.90;65.90
19947;DHT22;10135;50.702;7.276;2022-10-16T08:07:54;18.90;65.90
19947;DHT22;10135;50.702;7.276;2022-10-16T08:09:56;18.90;65.90
19947;DHT22;10135;50.702;7.276;2022-10-16T08:11:58;18.90;65.70
19947;DHT22;10135;50.702;7.276;2022-10-16T08:13:59;18.90;65.70
19947;DHT22;10135;50.702;7.276;2022-10-16T08:15:59;19.00;65.70
19947;DHT22;10135;50.702;7.276;2022-10-16T08:18:03;19.00;65.60
19947;DHT22;10135;50.702;7.276;2022-10-16T08:20:05;19.00;65.70
19947;DHT22;10135;50.702;7.276;2022-10-16T08:22:07;19.00;65.60
19947;DHT22;10135;50.702;7.276;2022-10-16T08:24:07;19.10;65.60
19947;DHT22;10135;50.702;7.276;2022-10-16T08:26:08;19.10;65.70
19947;DHT22;10135;50.702;7.276;2022-10-16T08:28:10;19.20;65.80
19947;DHT22;10135;50.702;7.276;2022-10-16T08:30:11;19.30;65.90
19947;DHT22;10135;50.702;7.276;2022-10-16T08:32:12;19.30;66.00
19947;DHT22;10135;50.702;7.276;2022-10-16T08:34:13;19.40;65.60
19947;DHT22;10135;50.702;7.276;2022-10-16T08:36:15;19.50;65.50
19947;DHT22;10135;50.702;7.276;2022-10-16T08:38:16;19.50;65.40
19947;DHT22;10135;50.702;7.276;2022-10-16T08:40:26;19.60;65.30
19947;DHT22;10135;50.702;7.276;2022-10-16T08:49:59;19.70;65.10
19947;DHT22;10135;50.702;7.276;2022-10-16T08:52:03;19.70;64.90
19947;DHT22;10135;50.702;7.276;2022-10-16T08:54:15;19.70;65.20
19947;DHT22;10135;50.702;7.276;2022-10-16T08:56:19;19.70;65.10
19947;DHT22;10135;50.702;7.276;2022-10-16T08:58:23;19.80;65.10
19947;DHT22;10135;50.702;7.276;2022-10-16T09:00:28;19.80;65.10
19947;DHT22;10135;50.702;7.276;2022-10-16T09:02:36;19.90;65.10
19947;DHT22;10135;50.702;7.276;2022-10-16T09:05:37;19.90;64.90
19947;DHT22;10135;50.702;7.276;2022-10-16T09:12:54;20.10;64.60
19947;DHT22;10135;50.702;7.276;2022-10-16T09:20:40;20.10;64.40
19947;DHT22;10135;50.702;7.276;2022-10-16T09:22:16;20.10;64.10
19947;DHT22;10135;50.702;7.276;2022-10-16T09:24:20;20.10;64.40
19947;DHT22;10135;50.702;7.276;2022-10-16T09:26:24;20.10;64.40
19947;DHT22;10135;50.702;7.276;2022-10-16T09:28:25;20.10;64.50
19947;DHT22;10135;50.702;7.276;2022-10-16T09:30:28;20.10;64.50
19947;DHT22;10135;50.702;7.276;2022-10-16T09:32:29;20.20;64.50
19947;DHT22;10135;50.702;7.276;2022-10-16T09:34:48;20.20;64.50
19947;DHT22;10135;50.702;7.276;2022-10-16T09:36:52;20.20;63.90
19947;DHT22;10135;50.702;7.276;2022-10-16T09:39:12;20.20;64.10
19947;DHT22;10135;50.702;7.276;2022-10-16T09:41:19;20.30;63.80
19947;DHT22;10135;50.702;7.276;2022-10-16T09:45:41;20.30;64.00
19947;DHT22;10135;50.702;7.276;2022-10-16T09:47:42;20.40;64.20
19947;DHT22;10135;50.702;7.276;2022-10-16T09:49:58;20.40;64.00
19947;DHT22;10135;50.702;7.276;2022-10-16T09:52:12;20.50;63.60
19947;DHT22;10135;50.702;7.276;2022-10-16T09:54:18;20.50;63.50
19947;DHT22;10135;50.702;7.276;2022-10-16T09:56:31;20.60;64.00
19947;DHT22;10135;50.702;7.276;2022-10-16T09:58:33;20.60;63.50
19947;DHT22;10135;50.702;7.276;2022-10-16T10:00:34;20.70;63.90
19947;DHT22;10135;50.702;7.276;2022-10-16T10:02:36;20.80;63.80
19947;DHT22;10135;50.702;7.276;2022-10-16T10:04:52;20.80;63.70
19947;DHT22;10135;50.702;7.276;2022-10-16T10:06:58;20.90;63.40
19947;DHT22;10135;50.702;7.276;2022-10-16T10:09:03;21.00;63.60
19947;DHT22;10135;50.702;7.276;2022-10-16T10:11:04;21.10;64.20
19947;DHT22;10135;50.702;7.276;2022-10-16T10:13:17;21.20;63.40
19947;DHT22;10135;50.702;7.276;2022-10-16T10:15:21;21.20;62.70
19947;DHT22;10135;50.702;7.276;2022-10-16T10:17:27;21.30;63.20
19947;DHT22;10135;50.702;7.276;2022-10-16T10:19:29;21.30;62.70
19947;DHT22;10135;50.702;7.276;2022-10-16T10:21:33;21.40;63.00
19947;DHT22;10135;50.702;7.276;2022-10-16T10:23:34;21.50;62.70
19947;DHT22;10135;50.702;7.276;2022-10-16T10:28:30;21.60;62.00
19947;DHT22;10135;50.702;7.276;2022-10-16T10:30:55;21.70;62.00
19947;DHT22;10135;50.702;7.276;2022-10-16T10:35:45;21.90;61.80
19947;DHT22;10135;50.702;7.276;2022-10-16T10:40:52;22.00;61.20
19947;DHT22;10135;50.702;7.276;2022-10-16T10:43:38;22.00;61.70
19947;DHT22;10135;50.702;7.276;2022-10-16T10:46:00;22.10;61.80
19947;DHT22;10135;50.702;7.276;2022-10-16T10:48:37;22.20;61.30
19947;DHT22;10135;50.702;7.276;2022-10-16T10:51:12;22.20;60.60
19947;DHT22;10135;50.702;7.276;2022-10-16T11:00:47;22.50;61.10
19947;DHT22;10135;50.702;7.276;2022-10-16T11:03:11;22.50;61.00
19947;DHT22;10135;50.702;7.276;2022-10-16T11:08:02;22.60;60.50
19947;DHT22;10135;50.702;7.276;2022-10-16T11:10:32;22.60;60.00
19947;DHT22;10135;50.702;7.276;2022-10-16T11:12:47;22.70;60.20
19947;DHT22;10135;50.702;7.276;2022-10-16T11:17:23;22.70;59.60
19947;DHT22;10135;50.702;7.276;2022-10-16T11:21:56;22.80;59.50
19947;DHT22;10135;50.702;7.276;2022-10-16T11:24:22;22.90;59.60
19947;DHT22;10135;50.702;7.276;2022-10-16T11:26:31;22.90;59.30
19947;DHT22;10135;50.702;7.276;2022-10-16T11:28:40;23.00;59.80
19947;DHT22;10135;50.702;7.276;2022-10-16T11:30:51;23.00;59.50
19947;DHT22;10135;50.702;7.276;2022-10-16T11:32:54;23.10;59.50
19947;DHT22;10135;50.702;7.276;2022-10-16T11:35:15;23.20;59.60
19947;DHT22;10135;50.702;7.276;2022-10-16T11:37:32;23.20;58.60
19947;DHT22;10135;50.702;7.276;2022-10-16T11:39:38;23.20;58.60
19947;DHT22;10135;50.702;7.276;2022-10-16T11:44:22;23.20;58.20
19947;DHT22;10135;50.702;7.276;2022-10-16T11:47:21;23.20;58.30
19947;DHT22;10135;50.702;7.276;2022-10-16T11:49:31;23.20;58.30
19947;DHT22;10135;50.702;7.276;2022-10-16T11:51:38;23.20;59.20
19947;DHT22;10135;50.702;7.276;2022-10-16T11:56:03;23.20;58.50
19947;DHT22;10135;50.702;7.276;2022-10-16T11:58:32;23.10;58.70
19947;DHT22;10135;50.702;7.276;2022-10-16T12:00:47;23.10;57.90
19947;DHT22;10135;50.702;7.276;2022-10-16T12:03:35;23.10;57.80
19947;DHT22;10135;50.702;7.276;2022-10-16T12:06:19;23.10;57.90
19947;DHT22;10135;50.702;7.276;2022-10-16T12:08:28;23.10;58.10
19947;DHT22;10135;50.702;7.276;2022-10-16T12:10:30;23.10;58.60
19947;DHT22;10135;50.702;7.276;2022-10-16T12:12:39;23.00;58.40
19947;DHT22;10135;50.702;7.276;2022-10-16T12:14:40;23.00;58.20
19947;DHT22;10135;50.702;7.276;2022-10-16T12:17:02;23.00;58.30
19947;DHT22;10135;50.702;7.276;2022-10-16T12:19:24;23.00;57.50
19947;DHT22;10135;50.702;7.276;2022-10-16T12:21:30;23.00;58.20
19947;DHT22;10135;50.702;7.276;2022-10-16T12:23:46;22.90;57.70
19947;DHT22;10135;50.702;7.276;2022-10-16T12:25:55;22.90;57.40
19947;DHT22;10135;50.702;7.276;2022-10-16T12:28:16;22.90;57.70
19947;DHT22;10135;50.702;7.276;2022-10-16T12:30:26;22.90;57.50
19947;DHT22;10135;50.702;7.276;2022-10-16T12:32:36;22.90;57.70
19947;DHT22;10135;50.702;7.276;2022-10-16T12:34:42;22.90;57.50
19947;DHT22;10135;50.702;7.276;2022-10-16T12:36:44;23.00;57.80
19947;DHT22;10135;50.702;7.276;2022-10-16T12:38:50;23.00;57.90
19947;DHT22;10135;50.702;7.276;2022-10-16T12:40:59;23.00;57.40
19947;DHT22;10135;50.702;7.276;2022-10-16T12:43:56;23.00;57.30
19947;DHT22;10135;50.702;7.276;2022-10-16T12:45:33;23.00;57.00
19947;DHT22;10135;50.702;7.276;2022-10-16T12:47:36;22.90;57.60
19947;DHT22;10135;50.702;7.276;2022-10-16T12:49:52;23.00;57.70
19947;DHT22;10135;50.702;7.276;2022-10-16T12:51:54;22.90;57.00
19947;DHT22;10135;50.702;7.276;2022-10-16T12:54:12;22.90;57.60
19947;DHT22;10135;50.702;7.276;2022-10-16T12:56:22;22.80;57.00
19947;DHT22;10135;50.702;7.276;2022-10-16T12:58:41;22.90;57.30
19947;DHT22;10135;50.702;7.276;2022-10-16T13:00:56;22.90;57.20
19947;DHT22;10135;50.702;7.276;2022-10-16T13:08:12;22.80;57.00
19947;DHT22;10135;50.702;7.276;2022-10-16T13:10:40;22.70;57.70
19947;DHT22;10135;50.702;7.276;2022-10-16T13:13:18;22.70;57.50
19947;DHT22;10135;50.702;7.276;2022-10-16T13:18:19;22.80;57.70
19947;DHT22;10135;50.702;7.276;2022-10-16T13:20:46;22.80;57.70
19947;DHT22;10135;50.702;7.276;2022-10-16T13:28:01;22.80;57.70
19947;DHT22;10135;50.702;7.276;2022-10-16T13:30:17;22.70;57.80
19947;DHT22;10135;50.702;7.276;2022-10-16T13:32:30;22.70;57.70
19947;DHT22;10135;50.702;7.276;2022-10-16T13:34:31;22.70;57.90
19947;DHT22;10135;50.702;7.276;2022-10-16T13:36:44;22.70;57.90
19947;DHT22;10135;50.702;7.276;2022-10-16T13:38:47;22.60;57.70
19947;DHT22;10135;50.702;7.276;2022-10-16T13:41:03;22.60;58.00
19947;DHT22;10135;50.702;7.276;2022-10-16T13:43:07;22.50;57.80
19947;DHT22;10135;50.702;7.276;2022-10-16T13:45:21;22.50;58.00
19947;DHT22;10135;50.702;7.276;2022-10-16T13:47:28;22.50;57.90
19947;DHT22;10135;50.702;7.276;2022-10-16T13:49:29;22.50;58.00
19947;DHT22;10135;50.702;7.276;2022-10-16T13:51:31;22.40;58.00
19947;DHT22;10135;50.702;7.276;2022-10-16T13:53:34;22.40;58.00
19947;DHT22;10135;50.702;7.276;2022-10-16T13:55:36;22.40;58.10
19947;DHT22;10135;50.702;7.276;2022-10-16T13:57:36;22.40;58.20
19947;DHT22;10135;50.702;7.276;2022-10-16T13:59:37;22.40;58.20
19947;DHT22;10135;50.702;7.276;2022-10-16T14:01:44;22.40;58.40
19947;DHT22;10135;50.702;7.276;2022-10-16T14:03:46;22.50;58.60
19947;DHT22;10135;50.702;7.276;2022-10-16T14:05:49;22.50;58.50
19947;DHT22;10135;50.702;7.276;2022-10-16T14:07:54;22.50;58.40
19947;DHT22;10135;50.702;7.276;2022-10-16T14:10:01;22.50;58.30
19947;DHT22;10135;50.702;7.276;2022-10-16T14:12:10;22.50;58.20
19947;DHT22;10135;50.702;7.276;2022-10-16T14:14:12;22.50;58.20
19947;DHT22;10135;50.702;7.276;2022-10-16T14:16:25;22.50;58.10
19947;DHT22;10135;50.702;7.276;2022-10-16T14:18:28;22.50;58.00
19947;DHT22;10135;50.702;7.276;2022-10-16T14:20:32;22.50;58.10
19947;DHT22;10135;50.702;7.276;2022-10-16T14:22:38;22.40;58.10
19947;DHT22;10135;50.702;7.276;2022-10-16T14:24:40;22.40;58.10
19947;DHT22;10135;50.702;7.276;2022-10-16T14:26:44;22.40;58.10
19947;DHT22;10135;50.702;7.276;2022-10-16T14:28:48;22.30;58.10
19947;DHT22;10135;50.702;7.276;2022-10-16T14:31:14;22.30;58.10
19947;DHT22;10135;50.702;7.276;2022-10-16T14:35:31;22.30;58.20
19947;DHT22;10135;50.702;7.276;2022-10-16T14:37:36;22.20;58.20
19947;DHT22;10135;50.702;7.276;2022-10-16T14:39:37;22.20;58.30
19947;DHT22;10135;50.702;7.276;2022-10-16T14:41:44;22.20;58.30
19947;DHT22;10135;50.702;7.276;2022-10-16T14:43:51;22.10;58.40
19947;DHT22;10135;50.702;7.276;2022-10-16T14:45:55;22.20;58.40
19947;DHT22;10135;50.702;7.276;2022-10-16T14:48:00;22.10;58.40
19947;DHT22;10135;50.702;7.276;2022-10-16T14:50:03;22.10;58.50
19947;DHT22;10135;50.702;7.276;2022-10-16T14:52:10;22.10;58.50
19947;DHT22;10135;50.702;7.276;2022-10-16T14:54:16;22.10;58.50
19947;DHT22;10135;50.702;7.276;2022-10-16T14:56:25;22.10;58.50
19947;DHT22;10135;50.702;7.276;2022-10-16T14:58:42;22.10;58.60
19947;DHT22;10135;50.702;7.276;2022-10-16T15:00:44;22.00;58.60
19947;DHT22;10135;50.702;7.276;2022-10-16T15:02:46;22.00;58.60
19947;DHT22;10135;50.702;7.276;2022-10-16T15:04:48;22.00;58.60
19947;DHT22;10135;50.702;7.276;2022-10-16T15:06:49;22.00;58.70
19947;DHT22;10135;50.702;7.276;2022-10-16T15:08:49;22.00;58.70
19947;DHT22;10135;50.702;7.276;2022-10-16T15:10:51;22.00;58.80
19947;DHT22;10135;50.702;7.276;2022-10-16T15:12:52;22.00;58.80
19947;DHT22;10135;50.702;7.276;2022-10-16T15:14:52;22.00;58.80
19947;DHT22;10135;50.702;7.276;2022-10-16T15:16:53;22.00;58.80
19947;DHT22;10135;50.702;7.276;2022-10-16T15:18:54;22.00;58.80
19947;DHT22;10135;50.702;7.276;2022-10-16T15:20:54;21.90;58.80
19947;DHT22;10135;50.702;7.276;2022-10-16T15:22:56;22.00;58.90
19947;DHT22;10135;50.702;7.276;2022-10-16T15:24:57;22.00;58.90
19947;DHT22;10135;50.702;7.276;2022-10-16T15:26:58;21.90;58.80
19947;DHT22;10135;50.702;7.276;2022-10-16T15:28:59;21.90;58.90
19947;DHT22;10135;50.702;7.276;2022-10-16T15:30:59;21.90;58.90
19947;DHT22;10135;50.702;7.276;2022-10-16T15:33:00;21.90;58.90
19947;DHT22;10135;50.702;7.276;2022-10-16T15:35:02;21.90;59.00
19947;DHT22;10135;50.702;7.276;2022-10-16T15:37:03;21.80;59.00
19947;DHT22;10135;50.702;7.276;2022-10-16T15:39:15;21.80;59.00
19947;DHT22;10135;50.702;7.276;2022-10-16T15:41:17;21.80;59.10
19947;DHT22;10135;50.702;7.276;2022-10-16T15:43:18;21.90;59.10
19947;DHT22;10135;50.702;7.276;2022-10-16T15:45:19;21.80;59.10
19947;DHT22;10135;50.702;7.276;2022-10-16T15:47:20;21.80;59.20
19947;DHT22;10135;50.702;7.276;2022-10-16T15:49:20;21.80;59.10
19947;DHT22;10135;50.702;7.276;2022-10-16T15:51:21;21.80;59.20
19947;DHT22;10135;50.702;7.276;2022-10-16T15:53:22;21.80;59.20
19947;DHT22;10135;50.702;7.276;2022-10-16T15:55:23;21.80;59.20
19947;DHT22;10135;50.702;7.276;2022-10-16T15:57:23;21.80;59.30
19947;DHT22;10135;50.702;7.276;2022-10-16T15:59:24;21.70;59.20
19947;DHT22;10135;50.702;7.276;2022-10-16T16:01:25;21.70;59.30
19947;DHT22;10135;50.702;7.276;2022-10-16T16:03:28;21.70;59.30
19947;DHT22;10135;50.702;7.276;2022-10-16T16:05:29;21.70;59.30
19947;DHT22;10135;50.702;7.276;2022-10-16T16:07:32;21.70;59.30
19947;DHT22;10135;50.702;7.276;2022-10-16T16:09:37;21.70;59.50
19947;DHT22;10135;50.702;7.276;2022-10-16T16:11:38;21.70;59.40
19947;DHT22;10135;50.702;7.276;2022-10-16T16:13:39;21.70;59.50
19947;DHT22;10135;50.702;7.276;2022-10-16T16:15:41;21.70;59.50
19947;DHT22;10135;50.702;7.276;2022-10-16T16:17:41;21.60;59.50
19947;DHT22;10135;50.702;7.276;2022-10-16T16:19:45;21.60;59.50
19947;DHT22;10135;50.702;7.276;2022-10-16T16:21:47;21.60;59.50
19947;DHT22;10135;50.702;7.276;2022-10-16T16:23:48;21.60;59.60
19947;DHT22;10135;50.702;7.276;2022-10-16T16:26:04;21.60;59.60
19947;DHT22;10135;50.702;7.276;2022-10-16T16:28:11;21.60;59.70
19947;DHT22;10135;50.702;7.276;2022-10-16T16:30:14;21.60;59.60
19947;DHT22;10135;50.702;7.276;2022-10-16T16:32:15;21.50;59.60
19947;DHT22;10135;50.702;7.276;2022-10-16T16:34:15;21.50;59.60
19947;DHT22;10135;50.702;7.276;2022-10-16T16:36:16;21.50;59.70
19947;DHT22;10135;50.702;7.276;2022-10-16T16:38:18;21.50;59.70
19947;DHT22;10135;50.702;7.276;2022-10-16T16:40:18;21.50;59.70
19947;DHT22;10135;50.702;7.276;2022-10-16T16:42:19;21.50;59.80
19947;DHT22;10135;50.702;7.276;2022-10-16T16:44:20;21.50;59.80
19947;DHT22;10135;50.702;7.276;2022-10-16T16:46:21;21.50;59.80
19947;DHT22;10135;50.702;7.276;2022-10-16T16:48:22;21.50;59.80
19947;DHT22;10135;50.702;7.276;2022-10-16T16:50:23;21.40;59.80
19947;DHT22;10135;50.702;7.276;2022-10-16T16:52:23;21.40;59.80
19947;DHT22;10135;50.702;7.276;2022-10-16T16:54:24;21.40;59.90
19947;DHT22;10135;50.702;7.276;2022-10-16T16:56:25;21.40;60.00
19947;DHT22;10135;50.702;7.276;2022-10-16T16:58:26;21.40;60.00
19947;DHT22;10135;50.702;7.276;2022-10-16T17:00:27;21.30;60.00
19947;DHT22;10135;50.702;7.276;2022-10-16T17:02:27;21.30;60.00
19947;DHT22;10135;50.702;7.276;2022-10-16T17:04:28;21.30;60.10
19947;DHT22;10135;50.702;7.276;2022-10-16T17:06:29;21.30;60.10
19947;DHT22;10135;50.702;7.276;2022-10-16T17:08:30;21.30;60.10
19947;DHT22;10135;50.702;7.276;2022-10-16T17:10:31;21.30;60.10
19947;DHT22;10135;50.702;7.276;2022-10-16T17:12:32;21.30;60.20
19947;DHT22;10135;50.702;7.276;2022-10-16T17:14:32;21.30;60.20
19947;DHT22;10135;50.702;7.276;2022-10-16T17:16:35;21.20;60.20
19947;DHT22;10135;50.702;7.276;2022-10-16T17:18:37;21.30;60.30
19947;DHT22;10135;50.702;7.276;2022-10-16T17:20:38;21.20;60.30
19947;DHT22;10135;50.702;7.276;2022-10-16T17:22:39;21.20;60.30
19947;DHT22;10135;50.702;7.276;2022-10-16T17:24:40;21.20;60.40
19947;DHT22;10135;50.702;7.276;2022-10-16T17:26:40;21.10;60.30
19947;DHT22;10135;50.702;7.276;2022-10-16T17:28:44;21.10;60.40
19947;DHT22;10135;50.702;7.276;2022-10-16T17:30:44;21.10;60.50
19947;DHT22;10135;50.702;7.276;2022-10-16T17:32:45;21.10;60.50
19947;DHT22;10135;50.702;7.276;2022-10-16T17:34:46;21.00;60.50
19947;DHT22;10135;50.702;7.276;2022-10-16T17:36:47;21.00;60.50
19947;DHT22;10135;50.702;7.276;2022-10-16T17:38:48;21.00;60.60
19947;DHT22;10135;50.702;7.276;2022-10-16T17:40:49;21.00;60.60
19947;DHT22;10135;50.702;7.276;2022-10-16T17:42:49;21.00;60.70
19947;DHT22;10135;50.702;7.276;2022-10-16T17:44:50;20.90;60.70
19947;DHT22;10135;50.702;7.276;2022-10-16T17:46:52;20.90;60.70
19947;DHT22;10135;50.702;7.276;2022-10-16T17:48:54;20.90;60.90
19947;DHT22;10135;50.702;7.276;2022-10-16T17:50:55;20.90;60.80
19947;DHT22;10135;50.702;7.276;2022-10-16T17:52:55;20.90;60.90
19947;DHT22;10135;50.702;7.276;2022-10-16T17:54:56;20.80;60.80
19947;DHT22;10135;50.702;7.276;2022-10-16T17:56:57;20.80;60.90
19947;DHT22;10135;50.702;7.276;2022-10-16T17:58:59;20.80;60.90
19947;DHT22;10135;50.702;7.276;2022-10-16T18:01:01;20.80;61.00
19947;DHT22;10135;50.702;7.276;2022-10-16T18:03:10;20.80;61.00
19947;DHT22;10135;50.702;7.276;2022-10-16T18:05:11;20.70;61.00
19947;DHT22;10135;50.702;7.276;2022-10-16T18:07:12;20.70;61.00
19947;DHT22;10135;50.702;7.276;2022-10-16T18:09:15;20.70;61.20
19947;DHT22;10135;50.702;7.276;2022-10-16T18:11:21;20.60;61.20
19947;DHT22;10135;50.702;7.276;2022-10-16T18:13:21;20.60;61.20
19947;DHT22;10135;50.702;7.276;2022-10-16T18:15:22;20.60;61.20
19947;DHT22;10135;50.702;7.276;2022-10-16T18:17:23;20.60;61.40
19947;DHT22;10135;50.702;7.276;2022-10-16T18:19:25;20.50;61.30
19947;DHT22;10135;50.702;7.276;2022-10-16T18:21:29;20.50;61.40
19947;DHT22;10135;50.702;7.276;2022-10-16T18:23:32;20.50;61.50
19947;DHT22;10135;50.702;7.276;2022-10-16T18:25:34;20.40;61.50
19947;DHT22;10135;50.702;7.276;2022-10-16T18:27:35;20.40;61.50
19947;DHT22;10135;50.702;7.276;2022-10-16T18:29:36;20.40;61.70
19947;DHT22;10135;50.702;7.276;2022-10-16T18:31:38;20.40;61.70
19947;DHT22;10135;50.702;7.276;2022-10-16T18:33:41;20.40;61.70
19947;DHT22;10135;50.702;7.276;2022-10-16T18:35:47;20.40;61.80
19947;DHT22;10135;50.702;7.276;2022-10-16T18:37:47;20.30;61.70
19947;DHT22;10135;50.702;7.276;2022-10-16T18:39:48;20.40;61.90
19947;DHT22;10135;50.702;7.276;2022-10-16T18:41:49;20.40;61.90
19947;DHT22;10135;50.702;7.276;2022-10-16T18:43:50;20.40;62.00
19947;DHT22;10135;50.702;7.276;2022-10-16T18:45:56;20.40;62.00
19947;DHT22;10135;50.702;7.276;2022-10-16T18:47:58;20.40;62.30
19947;DHT22;10135;50.702;7.276;2022-10-16T18:49:59;20.30;62.10
19947;DHT22;10135;50.702;7.276;2022-10-16T18:51:59;20.40;62.10
19947;DHT22;10135;50.702;7.276;2022-10-16T18:54:06;20.30;62.10
19947;DHT22;10135;50.702;7.276;2022-10-16T18:56:09;20.30;62.30
19947;DHT22;10135;50.702;7.276;2022-10-16T18:58:11;20.30;62.10
19947;DHT22;10135;50.702;7.276;2022-10-16T19:00:12;20.30;62.20
19947;DHT22;10135;50.702;7.276;2022-10-16T19:02:12;20.30;62.30
19947;DHT22;10135;50.702;7.276;2022-10-16T19:04:15;20.30;62.30
19947;DHT22;10135;50.702;7.276;2022-10-16T19:06:16;20.30;62.40
19947;DHT22;10135;50.702;7.276;2022-10-16T19:08:17;20.30;62.30
19947;DHT22;10135;50.702;7.276;2022-10-16T19:10:18;20.30;62.50
19947;DHT22;10135;50.702;7.276;2022-10-16T19:12:18;20.30;62.50
19947;DHT22;10135;50.702;7.276;2022-10-16T19:14:19;20.30;62.60
19947;DHT22;10135;50.702;7.276;2022-10-16T19:16:26;20.30;62.60
19947;DHT22;10135;50.702;7.276;2022-10-16T19:18:29;20.30;63.60
19947;DHT22;10135;50.702;7.276;2022-10-16T19:20:36;20.30;62.80
19947;DHT22;10135;50.702;7.276;2022-10-16T19:22:38;20.30;62.80
19947;DHT22;10135;50.702;7.276;2022-10-16T19:24:53;20.30;63.00
19947;DHT22;10135;50.702;7.276;2022-10-16T19:26:54;20.30;63.00
19947;DHT22;10135;50.702;7.276;2022-10-16T19:28:56;20.30;63.00
19947;DHT22;10135;50.702;7.276;2022-10-16T19:31:01;20.30;63.10
19947;DHT22;10135;50.702;7.276;2022-10-16T19:33:04;20.30;63.20
19947;DHT22;10135;50.702;7.276;2022-10-16T19:35:06;20.30;63.20
19947;DHT22;10135;50.702;7.276;2022-10-16T19:37:08;20.40;63.40
19947;DHT22;10135;50.702;7.276;2022-10-16T19:39:14;20.40;63.40
19947;DHT22;10135;50.702;7.276;2022-10-16T19:41:17;20.40;63.80
19947;DHT22;10135;50.702;7.276;2022-10-16T19:43:19;20.40;63.50